Arbor Hill, Iowa
Current Conditions -  °F | °C
As of 3:35 AM on Thursday 18 Dec 2014 (Local Time) from KPRO Reporting Station
Overcast Overcast  
Wind Chill: 15°   Ceiling: 8500
Heat Index: 22°   Visibility: 10mi
Dew Point: 20°   Wind: 6mph
Humidity: 91%   Direction: 110°ESE
Pressure: 30.28"   Gusts: NA
Location:  41.5397°N, 94.299°W
Report Text: KPRO 180935Z AUTO 11005KT 10SM OVC085 M05/M07 A3028 RMK AO2 T10541067
Loading
Personal Weather Stations






























Interactive Weather Map New forecast layout! Learn more

10-Day Weather Forecast

Advertisements
Track Severe Weather on mobile